createdAt,value
2022-11-03T00:00:13.033Z,10.70
2022-11-03T00:00:44.908Z,10.70
2022-11-03T00:01:17.712Z,10.70
2022-11-03T00:01:50.986Z,10.70
2022-11-03T00:02:23.080Z,10.70
2022-11-03T00:02:56.298Z,10.70
2022-11-03T00:03:28.328Z,10.70
2022-11-03T00:04:00.160Z,10.70
2022-11-03T00:04:33.320Z,10.70
2022-11-03T00:05:20.736Z,10.70
2022-11-03T00:06:07.512Z,10.70
2022-11-03T00:06:40.038Z,10.60
2022-11-03T00:07:12.799Z,10.60
2022-11-03T00:07:44.648Z,10.60
2022-11-03T00:08:16.423Z,10.60
2022-11-03T00:08:49.225Z,10.60
2022-11-03T00:09:22.497Z,10.60
2022-11-03T00:09:55.628Z,10.70
2022-11-03T00:10:28.381Z,10.60
2022-11-03T00:11:04.985Z,10.60
2022-11-03T00:11:38.879Z,10.60
2022-11-03T00:12:10.662Z,10.60
2022-11-03T00:12:42.476Z,10.60
2022-11-03T00:13:14.252Z,10.60
2022-11-03T00:13:47.060Z,10.60
2022-11-03T00:14:19.494Z,10.60
2022-11-03T00:14:51.309Z,10.60
2022-11-03T00:39:35.996Z,10.10
2022-11-03T00:40:10.998Z,10.20
2022-11-03T00:40:42.774Z,10.20
2022-11-03T00:41:16.387Z,10.20
2022-11-03T00:41:48.192Z,10.10
2022-11-03T00:42:19.995Z,10.20
2022-11-03T00:42:52.754Z,10.20
2022-11-03T00:43:25.784Z,10.20
2022-11-03T00:43:57.800Z,10.20
2022-11-03T00:44:30.596Z,10.20
2022-11-03T00:45:02.365Z,10.20
2022-11-03T00:45:34.137Z,10.20
2022-11-03T00:46:08.813Z,10.20
2022-11-03T00:46:40.687Z,10.20
2022-11-03T00:47:12.454Z,10.20
2022-11-03T00:47:59.116Z,10.20
2022-11-03T00:48:32.668Z,10.20
2022-11-03T00:49:05.025Z,10.20
2022-11-03T00:49:36.851Z,10.20
2022-11-03T00:50:10.190Z,10.20
2022-11-03T00:50:42.339Z,10.20
2022-11-03T00:51:15.909Z,10.30
2022-11-03T00:51:48.663Z,10.30
2022-11-03T00:52:20.448Z,10.30
2022-11-03T00:52:53.019Z,10.30
2022-11-03T00:53:24.931Z,10.30
2022-11-03T00:53:59.365Z,10.20
2022-11-03T00:54:31.193Z,10.20
2022-11-03T00:55:05.034Z,10.20
2022-11-03T00:55:37.779Z,10.20
2022-11-03T00:56:13.992Z,10.20
2022-11-03T00:56:46.025Z,10.20
2022-11-03T00:57:19.237Z,10.20
2022-11-03T00:57:53.134Z,10.20
2022-11-03T00:58:25.271Z,10.20
2022-11-03T00:58:59.992Z,10.20
2022-11-03T00:59:31.764Z,10.20
2022-11-03T01:00:04.120Z,10.20
2022-11-03T01:00:36.854Z,10.20
2022-11-03T01:01:11.323Z,10.30
2022-11-03T01:01:47.549Z,10.30
2022-11-03T01:02:19.852Z,10.30
2022-11-03T01:02:51.706Z,10.30
2022-11-03T01:03:23.484Z,10.20
2022-11-03T01:04:15.473Z,10.20
2022-11-03T01:05:06.004Z,10.20
2022-11-03T01:05:59.184Z,10.20
2022-11-03T01:06:51.257Z,10.20
2022-11-03T01:07:23.050Z,10.20
2022-11-03T01:07:54.892Z,10.20
2022-11-03T01:08:32.566Z,10.20
2022-11-03T01:09:04.335Z,10.20
2022-11-03T01:09:37.327Z,10.20
2022-11-03T01:10:11.738Z,10.20
2022-11-03T01:11:04.221Z,10.30
2022-11-03T01:11:44.864Z,10.30
2022-11-03T01:12:18.221Z,10.20
2022-11-03T01:12:51.008Z,10.20
2022-11-03T01:13:22.779Z,10.20
2022-11-03T01:13:55.381Z,10.20
2022-11-03T01:14:30.412Z,10.20
2022-11-03T01:15:02.180Z,10.30
2022-11-03T01:15:33.951Z,10.20
2022-11-03T01:16:06.295Z,10.20
2022-11-03T01:16:39.119Z,10.20
2022-11-03T01:17:13.948Z,10.20
2022-11-03T01:17:45.732Z,10.20
2022-11-03T01:18:18.511Z,10.20
2022-11-03T01:18:50.973Z,10.20
2022-11-03T01:19:23.655Z,10.10
2022-11-03T01:19:56.732Z,10.20
2022-11-03T01:20:28.513Z,10.20
2022-11-03T01:21:00.301Z,10.20
2022-11-03T01:21:33.071Z,10.20
2022-11-03T01:22:09.449Z,10.20
2022-11-03T01:22:43.960Z,10.20
2022-11-03T01:23:15.757Z,10.20
2022-11-03T01:23:47.603Z,10.20
2022-11-03T01:24:21.907Z,10.20
2022-11-03T01:24:53.698Z,10.20
2022-11-03T01:25:27.819Z,10.30
2022-11-03T01:26:04.778Z,10.30
2022-11-03T01:26:36.575Z,10.30
2022-11-03T01:27:09.532Z,10.30
2022-11-03T01:27:41.306Z,10.30
2022-11-03T01:28:13.102Z,10.30
2022-11-03T01:28:47.356Z,10.30
2022-11-03T01:29:19.283Z,10.30
2022-11-03T01:29:51.086Z,10.30
2022-11-03T01:30:23.845Z,10.30
2022-11-03T01:30:55.635Z,10.30
2022-11-03T01:31:28.572Z,10.40
2022-11-03T01:32:01.383Z,10.40
2022-11-03T01:32:33.162Z,10.40
2022-11-03T01:33:05.269Z,10.40
2022-11-03T01:33:38.387Z,10.40
2022-11-03T01:34:14.836Z,10.40
2022-11-03T01:34:47.597Z,10.40
2022-11-03T01:35:19.380Z,10.40
2022-11-03T01:35:53.308Z,10.40
2022-11-03T01:36:26.363Z,10.40
2022-11-03T01:36:58.197Z,10.40
2022-11-03T01:37:29.998Z,10.40
2022-11-03T01:38:02.739Z,10.40
2022-11-03T01:38:35.850Z,10.40
2022-11-03T01:39:10.128Z,10.40
2022-11-03T01:39:42.907Z,10.40
2022-11-03T01:40:14.734Z,10.40
2022-11-03T01:40:47.886Z,10.40
2022-11-03T01:41:23.156Z,10.40
2022-11-03T01:41:54.953Z,10.30
2022-11-03T01:42:26.808Z,10.30
2022-11-03T01:43:17.503Z,10.30
2022-11-03T01:43:52.023Z,10.30
2022-11-03T01:44:34.414Z,10.50
2022-11-03T01:45:08.079Z,10.30
2022-11-03T01:45:39.918Z,10.30
2022-11-03T01:46:17.507Z,10.30
2022-11-03T01:46:56.099Z,10.30
2022-11-03T01:47:31.026Z,10.30
2022-11-03T01:48:02.895Z,10.30
2022-11-03T01:48:36.244Z,10.40
2022-11-03T01:49:13.407Z,10.30
2022-11-03T01:49:47.787Z,10.30
2022-11-03T01:50:21.381Z,10.30
2022-11-03T01:50:53.396Z,10.30
2022-11-03T01:51:28.919Z,10.30
2022-11-03T01:52:06.997Z,10.30
2022-11-03T01:52:43.388Z,10.30
2022-11-03T01:53:17.555Z,10.30
2022-11-03T01:53:52.733Z,10.30
2022-11-03T01:54:28.665Z,10.30
2022-11-03T01:55:04.563Z,10.20
2022-11-03T01:55:39.894Z,10.20
2022-11-03T01:56:15.060Z,10.20
2022-11-03T01:56:47.143Z,10.20
2022-11-03T01:57:29.450Z,10.20
2022-11-03T01:58:05.961Z,10.10
2022-11-03T01:58:42.231Z,10.10
2022-11-03T01:59:17.576Z,10.10
2022-11-03T01:59:49.759Z,10.10
2022-11-03T02:00:22.027Z,10.10
2022-11-03T02:00:59.062Z,10.10
2022-11-03T02:01:31.714Z,10.20
2022-11-03T02:02:04.031Z,10.20
2022-11-03T02:02:37.012Z,10.20
2022-11-03T02:03:09.542Z,10.20
2022-11-03T02:03:46.000Z,10.20
2022-11-03T02:04:23.446Z,10.20
2022-11-03T02:04:57.870Z,10.20
2022-11-03T02:05:30.731Z,10.20
2022-11-03T02:06:04.696Z,10.20
2022-11-03T02:06:37.180Z,10.20
2022-11-03T02:07:17.352Z,10.20
2022-11-03T02:07:54.884Z,10.10
2022-11-03T02:08:31.331Z,10.10
2022-11-03T02:09:05.796Z,10.10
2022-11-03T02:09:38.632Z,10.10
2022-11-03T02:10:10.602Z,10.10
2022-11-03T02:10:43.983Z,10.10
2022-11-03T02:11:35.598Z,10.10
2022-11-03T02:12:08.753Z,10.10
2022-11-03T02:12:40.979Z,9.90
2022-11-03T02:13:19.319Z,10.00
2022-11-03T02:13:51.160Z,10.00
2022-11-03T02:14:23.035Z,10.00
2022-11-03T02:14:59.333Z,10.00
2022-11-03T02:15:32.609Z,10.00
2022-11-03T02:16:05.149Z,9.90
2022-11-03T02:16:38.001Z,9.90
2022-11-03T02:17:12.784Z,9.90
2022-11-03T02:17:47.678Z,9.90
2022-11-03T02:18:22.683Z,9.90
2022-11-03T02:18:56.034Z,9.90
2022-11-03T02:19:35.050Z,9.90
2022-11-03T02:20:11.031Z,9.90
2022-11-03T02:20:45.875Z,9.90
2022-11-03T02:21:29.412Z,9.90
2022-11-03T02:22:11.809Z,9.90
2022-11-03T02:23:04.880Z,9.90
2022-11-03T02:23:43.439Z,9.90
2022-11-03T02:24:23.961Z,9.90
2022-11-03T02:25:03.897Z,9.90
2022-11-03T02:25:42.797Z,9.90
2022-11-03T02:26:17.575Z,9.90
2022-11-03T02:26:53.906Z,9.90
2022-11-03T02:27:26.037Z,9.90
2022-11-03T02:27:59.322Z,9.90
2022-11-03T02:28:33.139Z,9.90
2022-11-03T02:29:05.941Z,9.90
2022-11-03T02:29:37.789Z,9.90
2022-11-03T02:30:10.230Z,9.90
2022-11-03T02:30:45.981Z,9.90
2022-11-03T02:31:25.908Z,9.90
2022-11-03T02:32:03.856Z,9.90
2022-11-03T02:32:42.942Z,9.90
2022-11-03T02:33:24.443Z,9.90
2022-11-03T02:34:00.661Z,10.00
2022-11-03T02:34:40.664Z,9.90
2022-11-03T02:35:19.310Z,10.00
2022-11-03T02:35:57.002Z,9.90
2022-11-03T02:36:33.800Z,9.90
2022-11-03T02:37:11.156Z,10.00
2022-11-03T02:37:47.821Z,9.90
2022-11-03T02:38:23.785Z,9.90
2022-11-03T02:39:00.580Z,9.90
2022-11-03T02:39:38.347Z,9.90
2022-11-03T02:40:14.831Z,9.90
2022-11-03T02:40:52.976Z,9.90
2022-11-03T02:41:28.060Z,9.80
2022-11-03T02:42:02.664Z,9.80
2022-11-03T02:42:36.573Z,9.80
2022-11-03T02:43:11.302Z,9.80
2022-11-03T02:43:45.087Z,9.70
2022-11-03T02:44:18.930Z,9.70
2022-11-03T02:44:54.637Z,9.80
2022-11-03T02:45:27.907Z,9.80
2022-11-03T02:46:00.685Z,9.80
2022-11-03T02:46:35.138Z,9.80
2022-11-03T02:47:09.731Z,9.80
2022-11-03T02:47:43.111Z,9.80
2022-11-03T02:48:17.659Z,9.80
2022-11-03T02:48:49.523Z,9.90
2022-11-03T02:49:22.286Z,9.90
2022-11-03T02:50:28.656Z,9.90
2022-11-03T02:51:01.479Z,9.80
2022-11-03T02:51:34.692Z,9.90
2022-11-03T02:52:07.663Z,9.90
2022-11-03T02:52:41.611Z,9.90
2022-11-03T02:53:15.497Z,9.90
2022-11-03T02:53:56.473Z,9.90
2022-11-03T02:54:32.701Z,9.90
2022-11-03T02:55:14.033Z,9.90
2022-11-03T02:55:55.708Z,9.70
2022-11-03T02:56:32.104Z,9.90
2022-11-03T02:57:07.859Z,9.90
2022-11-03T02:57:44.998Z,9.90
2022-11-03T02:58:23.073Z,9.90
2022-11-03T02:58:59.912Z,9.90
2022-11-03T02:59:41.819Z,9.80
2022-11-03T03:00:15.147Z,9.80
2022-11-03T03:00:52.598Z,9.80
2022-11-03T03:01:34.282Z,9.80
2022-11-03T03:02:09.215Z,9.80
2022-11-03T03:02:51.112Z,9.80
2022-11-03T03:03:27.761Z,9.80
2022-11-03T03:04:03.612Z,9.70
2022-11-03T03:04:37.708Z,9.70
2022-11-03T03:05:12.760Z,9.60
2022-11-03T03:05:47.739Z,9.60
2022-11-03T03:06:23.854Z,9.70
2022-11-03T03:07:01.647Z,9.60
2022-11-03T03:07:37.158Z,9.70
2022-11-03T03:08:11.941Z,9.70
2022-11-03T03:08:50.289Z,9.70
2022-11-03T03:09:26.198Z,9.70
2022-11-03T03:10:02.503Z,9.70
2022-11-03T03:10:37.848Z,9.80
2022-11-03T03:11:12.567Z,9.70
2022-11-03T03:11:47.923Z,9.70
2022-11-03T03:12:21.243Z,9.80
2022-11-03T03:12:56.390Z,9.80
2022-11-03T03:13:29.392Z,9.80
2022-11-03T03:14:01.273Z,9.80
2022-11-03T03:14:37.155Z,9.80
2022-11-03T03:15:10.764Z,10.00
2022-11-03T03:15:55.322Z,9.80
2022-11-03T03:16:32.907Z,9.90
2022-11-03T03:17:10.287Z,9.80
2022-11-03T03:17:45.762Z,9.90
2022-11-03T03:18:24.317Z,9.90
2022-11-03T03:19:08.951Z,9.90
2022-11-03T03:19:48.907Z,9.90
2022-11-03T03:20:26.404Z,9.90
2022-11-03T03:21:03.699Z,9.90
2022-11-03T03:21:43.366Z,9.90
2022-11-03T03:22:23.275Z,9.90
2022-11-03T03:22:59.627Z,9.90
2022-11-03T03:23:35.550Z,9.80
2022-11-03T03:24:13.577Z,9.80
2022-11-03T03:24:52.375Z,9.80
2022-11-03T03:25:28.376Z,9.80
2022-11-03T03:26:05.930Z,9.80
2022-11-03T03:26:42.713Z,9.80
2022-11-03T03:27:17.667Z,9.70
2022-11-03T03:27:54.847Z,9.70
2022-11-03T03:28:32.216Z,9.70
2022-11-03T03:29:09.588Z,9.70
2022-11-03T03:29:47.337Z,9.70
2022-11-03T03:30:19.593Z,9.70
2022-11-03T03:30:53.992Z,9.70
2022-11-03T03:31:29.976Z,9.70
2022-11-03T03:32:06.248Z,9.80
2022-11-03T03:32:40.351Z,9.80
2022-11-03T03:33:13.873Z,9.70
2022-11-03T03:33:48.861Z,9.70
2022-11-03T03:34:34.541Z,9.80
2022-11-03T03:35:11.017Z,9.80
2022-11-03T03:35:47.872Z,9.80
2022-11-03T03:36:21.131Z,9.80
2022-11-03T03:36:55.996Z,9.80
2022-11-03T03:37:31.051Z,9.80
2022-11-03T03:38:07.853Z,9.70
2022-11-03T03:38:43.962Z,9.70
2022-11-03T03:39:19.492Z,9.70
2022-11-03T03:39:55.215Z,9.70
2022-11-03T03:40:32.217Z,9.70
2022-11-03T03:41:10.534Z,9.70
2022-11-03T03:41:45.948Z,9.70
2022-11-03T03:42:19.514Z,9.70
2022-11-03T03:42:53.713Z,9.70
2022-11-03T03:43:29.002Z,9.70
2022-11-03T03:44:05.963Z,9.70
2022-11-03T03:44:40.819Z,9.70
2022-11-03T03:45:13.252Z,9.70
2022-11-03T03:45:46.217Z,9.70
2022-11-03T03:46:21.825Z,9.70
2022-11-03T03:47:03.331Z,9.70
2022-11-03T03:47:36.825Z,9.70
2022-11-03T03:48:08.937Z,9.70
2022-11-03T03:48:41.023Z,9.70
2022-11-03T03:49:14.105Z,9.70
2022-11-03T03:49:46.056Z,9.70
2022-11-03T03:50:19.305Z,9.70
2022-11-03T03:50:51.440Z,9.70
2022-11-03T03:51:26.604Z,9.70
2022-11-03T03:52:00.173Z,9.70
2022-11-03T03:52:34.717Z,9.70
2022-11-03T03:53:10.155Z,9.70
2022-11-03T03:53:43.410Z,9.70
2022-11-03T03:54:15.189Z,9.70
2022-11-03T03:54:47.005Z,9.70
2022-11-03T03:55:59.994Z,9.60
2022-11-03T03:56:38.043Z,9.60
2022-11-03T03:57:16.495Z,9.60
2022-11-03T03:57:48.444Z,9.60
2022-11-03T03:58:20.263Z,9.60
2022-11-03T03:58:53.149Z,9.60
2022-11-03T03:59:24.944Z,9.60
2022-11-03T03:59:56.842Z,9.60
2022-11-03T04:00:29.595Z,9.60
2022-11-03T04:01:01.608Z,9.60
2022-11-03T04:01:33.684Z,9.60
2022-11-03T04:02:07.401Z,9.60
2022-11-03T04:02:39.472Z,9.60
2022-11-03T04:03:15.961Z,9.60
2022-11-03T04:03:48.754Z,9.70
2022-11-03T04:04:20.825Z,9.60
2022-11-03T04:04:52.651Z,9.60
2022-11-03T04:05:25.558Z,9.60
2022-11-03T04:05:57.337Z,9.70
2022-11-03T04:06:29.169Z,9.70
2022-11-03T04:07:19.580Z,9.60
2022-11-03T04:07:52.355Z,9.60
2022-11-03T04:08:24.223Z,9.60
2022-11-03T04:08:56.086Z,9.60
2022-11-03T04:09:28.865Z,9.60
2022-11-03T04:10:00.641Z,9.50
2022-11-03T04:10:33.372Z,9.50
2022-11-03T04:11:24.057Z,9.50
2022-11-03T04:12:14.330Z,9.50
2022-11-03T04:13:06.115Z,9.50
2022-11-03T04:13:55.814Z,9.50
2022-11-03T04:14:45.868Z,9.50
2022-11-03T04:15:50.824Z,9.50
2022-11-03T04:16:41.495Z,9.50
2022-11-03T04:17:38.334Z,9.50
2022-11-03T04:18:28.849Z,9.40
2022-11-03T04:19:18.901Z,9.40
2022-11-03T04:20:09.524Z,9.40
2022-11-03T04:20:59.691Z,9.40
2022-11-03T04:21:49.830Z,9.40
2022-11-03T04:22:22.686Z,9.50
2022-11-03T04:22:54.527Z,9.40
2022-11-03T04:23:26.387Z,9.40
2022-11-03T04:24:00.196Z,9.40
2022-11-03T04:24:32.000Z,9.50
2022-11-03T04:25:04.208Z,9.40
2022-11-03T04:25:37.067Z,9.40
2022-11-03T04:26:13.273Z,9.50
2022-11-03T04:26:45.115Z,9.50
2022-11-03T04:27:29.319Z,9.50
2022-11-03T04:28:05.677Z,9.50
2022-11-03T04:28:37.660Z,9.50
2022-11-03T04:29:12.734Z,9.50
2022-11-03T04:29:44.640Z,9.50
2022-11-03T04:30:19.164Z,9.50
2022-11-03T04:30:54.686Z,9.50
2022-11-03T04:31:34.391Z,9.60
2022-11-03T04:32:14.083Z,9.60
2022-11-03T04:32:48.425Z,9.60
2022-11-03T04:33:21.863Z,9.60
2022-11-03T04:33:53.658Z,9.50
2022-11-03T04:34:26.592Z,9.50
2022-11-03T04:34:58.964Z,9.50
2022-11-03T04:35:30.759Z,9.50
2022-11-03T04:36:11.373Z,9.50
2022-11-03T04:36:43.208Z,9.50
2022-11-03T04:37:15.996Z,9.50
2022-11-03T04:37:55.393Z,9.50
2022-11-03T04:38:29.252Z,9.50
2022-11-03T04:39:01.218Z,9.50
2022-11-03T04:39:34.228Z,9.50
2022-11-03T04:40:13.495Z,9.50
2022-11-03T04:40:50.390Z,9.40
2022-11-03T04:41:30.311Z,9.40
2022-11-03T04:42:02.120Z,9.40
2022-11-03T04:42:35.315Z,9.30
2022-11-03T04:43:14.414Z,9.30
2022-11-03T04:43:46.951Z,9.30
2022-11-03T04:44:18.775Z,9.30
2022-11-03T04:44:51.915Z,9.30
2022-11-03T04:45:29.009Z,9.30
2022-11-03T04:46:01.063Z,9.30
2022-11-03T04:46:33.865Z,9.20
2022-11-03T04:47:09.996Z,9.30
2022-11-03T04:47:41.809Z,9.30
2022-11-03T04:48:15.969Z,9.30
2022-11-03T04:48:47.820Z,9.30
2022-11-03T04:49:23.018Z,9.30
2022-11-03T04:49:56.095Z,9.40
2022-11-03T04:50:28.034Z,9.30
2022-11-03T04:51:02.195Z,9.30
2022-11-03T04:51:36.106Z,9.30
2022-11-03T04:52:15.262Z,9.40
2022-11-03T04:52:47.347Z,9.30
2022-11-03T04:53:21.786Z,9.30
2022-11-03T04:53:55.371Z,9.30
2022-11-03T04:54:27.301Z,9.30
2022-11-03T04:55:00.684Z,9.30
2022-11-03T04:55:32.624Z,9.30
2022-11-03T04:56:15.461Z,9.30
2022-11-03T04:56:48.226Z,9.30
2022-11-03T04:57:20.057Z,9.30
2022-11-03T04:57:57.093Z,9.30
2022-11-03T04:58:35.032Z,9.30
2022-11-03T04:59:11.077Z,9.30
2022-11-03T04:59:45.688Z,9.30
2022-11-03T05:00:19.446Z,9.30
2022-11-03T05:00:53.436Z,9.20
2022-11-03T05:01:26.610Z,9.30
2022-11-03T05:01:59.099Z,9.20
2022-11-03T05:02:31.050Z,9.20
2022-11-03T05:03:04.468Z,9.20
2022-11-03T05:03:37.503Z,9.20
2022-11-03T05:04:13.475Z,9.10
2022-11-03T05:04:46.723Z,9.10
2022-11-03T05:05:21.272Z,9.10
2022-11-03T05:05:53.376Z,9.10
2022-11-03T05:06:28.884Z,9.10
2022-11-03T05:07:00.685Z,9.20
2022-11-03T05:07:34.831Z,9.10
2022-11-03T05:08:10.557Z,9.10
2022-11-03T05:08:44.843Z,9.10
2022-11-03T05:09:20.248Z,9.10
2022-11-03T05:09:53.371Z,9.10
2022-11-03T05:10:27.247Z,9.10
2022-11-03T05:11:00.434Z,9.10
2022-11-03T05:11:37.450Z,9.10
2022-11-03T05:12:10.100Z,9.10
2022-11-03T05:12:42.376Z,9.10
2022-11-03T05:13:19.737Z,9.20
2022-11-03T05:13:52.926Z,9.20
2022-11-03T05:14:26.371Z,9.20
2022-11-03T05:14:59.269Z,9.20
2022-11-03T05:15:34.848Z,9.20
2022-11-03T05:16:07.171Z,9.20
2022-11-03T05:16:40.088Z,9.20
2022-11-03T05:17:22.376Z,9.20
2022-11-03T05:17:54.690Z,9.20
2022-11-03T05:18:32.222Z,9.20
2022-11-03T05:19:04.219Z,9.20
2022-11-03T05:19:40.053Z,9.20
2022-11-03T05:20:30.716Z,9.20
2022-11-03T05:21:09.158Z,9.20
2022-11-03T05:21:41.947Z,9.20
2022-11-03T05:22:18.548Z,9.20
2022-11-03T05:22:50.338Z,9.20
2022-11-03T05:23:26.796Z,9.20
2022-11-03T05:24:03.461Z,9.20
2022-11-03T05:24:36.165Z,9.20
2022-11-03T05:25:35.071Z,9.20
2022-11-03T05:26:11.908Z,9.20
2022-11-03T05:26:45.215Z,9.20
2022-11-03T05:27:20.870Z,9.20
2022-11-03T05:27:52.722Z,9.20
2022-11-03T05:28:29.216Z,9.30
2022-11-03T05:29:08.806Z,9.30
2022-11-03T05:29:40.978Z,9.30
2022-11-03T05:30:15.707Z,9.30
2022-11-03T05:30:48.508Z,9.20
2022-11-03T05:31:27.629Z,9.20
2022-11-03T05:32:01.307Z,9.20
2022-11-03T05:32:34.244Z,9.20
2022-11-03T05:33:19.295Z,9.20
2022-11-03T05:33:54.185Z,9.20
2022-11-03T05:34:35.028Z,9.10
2022-11-03T05:35:20.204Z,9.10
2022-11-03T05:35:52.138Z,9.10
2022-11-03T05:36:27.004Z,9.10
2022-11-03T05:36:59.469Z,9.10
2022-11-03T05:37:32.774Z,9.00
2022-11-03T05:38:12.166Z,9.00
2022-11-03T05:38:44.016Z,9.00
2022-11-03T05:39:26.517Z,8.90
2022-11-03T05:40:01.453Z,9.00
2022-11-03T05:40:33.806Z,9.00
2022-11-03T05:41:12.020Z,9.00
2022-11-03T05:41:44.812Z,9.00
2022-11-03T05:42:25.190Z,9.00
2022-11-03T05:43:00.919Z,9.00
2022-11-03T05:43:33.909Z,9.00
2022-11-03T05:44:29.861Z,9.00
2022-11-03T05:45:05.495Z,9.00
2022-11-03T05:45:37.931Z,9.00
2022-11-03T05:46:11.633Z,9.00
2022-11-03T05:46:44.434Z,9.00
2022-11-03T05:47:20.969Z,9.00
2022-11-03T05:47:55.155Z,9.00
2022-11-03T05:48:33.852Z,9.00
2022-11-03T05:49:07.548Z,9.10
2022-11-03T05:49:40.323Z,9.10
2022-11-03T05:50:18.616Z,9.10
2022-11-03T05:50:51.374Z,9.10
2022-11-03T05:51:28.498Z,9.10
2022-11-03T05:52:00.861Z,9.10
2022-11-03T05:52:33.662Z,9.10
2022-11-03T05:53:26.727Z,9.20
2022-11-03T05:54:02.683Z,9.20
2022-11-03T05:54:35.146Z,9.10
2022-11-03T05:55:24.863Z,9.10
2022-11-03T05:55:59.925Z,9.10
2022-11-03T05:56:33.991Z,9.10
2022-11-03T05:57:10.653Z,9.10
2022-11-03T05:57:42.454Z,9.10
2022-11-03T05:58:23.487Z,9.20
2022-11-03T05:58:56.543Z,9.20
2022-11-03T05:59:30.958Z,9.20
2022-11-03T06:00:08.064Z,9.20
2022-11-03T06:00:47.090Z,9.20
2022-11-03T06:01:27.126Z,9.20
2022-11-03T06:02:00.713Z,9.20
2022-11-03T06:02:37.460Z,9.20
2022-11-03T06:03:17.920Z,9.20
2022-11-03T06:03:49.807Z,9.30
2022-11-03T06:04:29.491Z,9.30
2022-11-03T06:05:01.552Z,9.30
2022-11-03T06:05:34.261Z,9.30
2022-11-03T06:06:16.184Z,9.20
2022-11-03T06:06:52.741Z,9.30
2022-11-03T06:07:27.689Z,9.10
2022-11-03T06:08:03.342Z,9.30
2022-11-03T06:08:38.948Z,9.30
2022-11-03T06:09:19.792Z,9.30
2022-11-03T06:09:53.039Z,9.30
2022-11-03T06:10:26.852Z,9.30
2022-11-03T06:11:02.256Z,9.30
2022-11-03T06:11:36.917Z,9.30
2022-11-03T06:12:15.303Z,9.30
2022-11-03T06:12:47.094Z,9.30
2022-11-03T06:13:21.015Z,9.30
2022-11-03T06:13:53.918Z,9.30
2022-11-03T06:14:28.074Z,9.30
2022-11-03T06:15:01.230Z,9.40
2022-11-03T06:15:36.228Z,9.40
2022-11-03T06:16:30.518Z,9.40
2022-11-03T06:17:07.071Z,9.40
2022-11-03T06:17:38.907Z,9.40
2022-11-03T06:18:16.099Z,9.40
2022-11-03T06:18:48.850Z,9.40
2022-11-03T06:19:27.172Z,9.40
2022-11-03T06:20:01.518Z,9.40
2022-11-03T06:20:35.144Z,9.40
2022-11-03T06:21:12.703Z,9.40
2022-11-03T06:21:44.994Z,9.30
2022-11-03T06:22:21.999Z,9.30
2022-11-03T06:22:57.356Z,9.30
2022-11-03T06:23:29.240Z,9.30
2022-11-03T06:24:01.100Z,9.30
2022-11-03T06:24:35.568Z,9.30
2022-11-03T06:25:19.131Z,9.30
2022-11-03T06:25:53.558Z,9.30
2022-11-03T06:26:27.406Z,9.30
2022-11-03T06:26:59.499Z,9.40
2022-11-03T06:27:35.135Z,9.40
2022-11-03T06:28:13.898Z,9.30
2022-11-03T06:28:47.566Z,9.50
2022-11-03T06:29:22.004Z,9.30
2022-11-03T06:29:58.940Z,9.30
2022-11-03T06:30:35.935Z,9.30
2022-11-03T06:31:23.117Z,9.30
2022-11-03T06:31:58.067Z,9.30
2022-11-03T06:32:30.316Z,9.30
2022-11-03T06:33:07.285Z,9.30
2022-11-03T06:33:40.292Z,9.30
2022-11-03T06:34:29.029Z,9.30
2022-11-03T06:35:00.820Z,9.30
2022-11-03T06:35:33.604Z,9.30
2022-11-03T06:36:13.899Z,9.30
2022-11-03T06:36:45.731Z,9.30
2022-11-03T06:37:24.404Z,9.30
2022-11-03T06:37:57.771Z,9.30
2022-11-03T06:38:33.623Z,9.30
2022-11-03T06:39:17.872Z,9.40
2022-11-03T06:39:50.999Z,9.40
2022-11-03T06:40:38.757Z,9.40
2022-11-03T06:41:18.970Z,9.40
2022-11-03T06:41:52.550Z,9.40
2022-11-03T06:42:27.893Z,9.40
2022-11-03T06:43:15.756Z,9.50
2022-11-03T06:43:47.555Z,9.50
2022-11-03T06:44:24.727Z,9.40
2022-11-03T06:44:56.560Z,9.40
2022-11-03T06:45:29.521Z,9.40
2022-11-03T06:46:12.366Z,9.40
2022-11-03T06:46:45.203Z,9.50
2022-11-03T06:47:22.631Z,9.40
2022-11-03T06:47:56.084Z,9.40
2022-11-03T06:48:29.572Z,9.40
2022-11-03T06:49:04.158Z,9.40
2022-11-03T06:49:36.219Z,9.40
2022-11-03T06:50:22.075Z,9.40
2022-11-03T06:50:55.752Z,9.50
2022-11-03T06:51:28.891Z,9.50
2022-11-03T06:52:12.896Z,9.50
2022-11-03T06:53:23.352Z,9.50
2022-11-03T06:53:59.632Z,9.50
2022-11-03T06:54:31.447Z,9.50
2022-11-03T06:55:22.230Z,9.50
2022-11-03T06:55:55.811Z,9.50
2022-11-03T06:56:31.501Z,9.50
2022-11-03T06:57:07.581Z,9.50
2022-11-03T06:57:41.836Z,9.50
2022-11-03T06:58:18.186Z,9.50
2022-11-03T06:58:53.508Z,9.50
2022-11-03T06:59:25.442Z,9.60
2022-11-03T07:00:13.321Z,9.50
2022-11-03T07:00:51.686Z,9.50
2022-11-03T07:01:29.326Z,9.50
2022-11-03T07:02:02.290Z,9.50
2022-11-03T07:02:52.771Z,9.60
2022-11-03T07:03:30.543Z,9.70
2022-11-03T07:04:05.975Z,9.70
2022-11-03T07:04:38.786Z,9.70
2022-11-03T07:05:20.557Z,9.70
2022-11-03T07:06:00.934Z,9.70
2022-11-03T07:06:36.131Z,9.70
2022-11-03T07:07:08.496Z,9.70
2022-11-03T07:07:41.271Z,9.80
2022-11-03T07:08:23.433Z,9.80
2022-11-03T07:08:59.297Z,9.80
2022-11-03T07:09:31.199Z,9.80
2022-11-03T07:10:03.075Z,9.80
2022-11-03T07:10:35.913Z,9.80
2022-11-03T07:11:14.929Z,9.80
2022-11-03T07:11:49.842Z,9.90
2022-11-03T07:12:22.611Z,9.90
2022-11-03T07:12:55.682Z,9.90
2022-11-03T07:13:29.960Z,9.90
2022-11-03T07:14:11.132Z,9.90
2022-11-03T07:14:44.570Z,9.90
2022-11-03T07:15:26.369Z,10.00
2022-11-03T07:15:59.255Z,9.90
2022-11-03T07:16:37.378Z,10.00
2022-11-03T07:17:16.083Z,9.90
2022-11-03T07:17:48.960Z,9.90
2022-11-03T07:18:23.892Z,9.90
2022-11-03T07:18:58.177Z,9.90
2022-11-03T07:19:33.635Z,10.00
2022-11-03T07:20:14.337Z,10.00
2022-11-03T07:20:47.406Z,10.00
2022-11-03T07:21:28.929Z,9.90
2022-11-03T07:22:03.584Z,10.00
2022-11-03T07:22:35.398Z,9.90
2022-11-03T07:23:13.052Z,9.90
2022-11-03T07:23:47.217Z,9.90
2022-11-03T07:24:22.753Z,9.90
2022-11-03T07:24:57.716Z,9.90
2022-11-03T07:25:31.639Z,9.90
2022-11-03T07:26:04.590Z,9.90
2022-11-03T07:26:36.400Z,9.90
2022-11-03T07:27:17.012Z,9.90
2022-11-03T07:27:52.488Z,9.90
2022-11-03T07:28:29.577Z,9.90
2022-11-03T07:29:01.771Z,9.90
2022-11-03T07:29:34.795Z,9.90
2022-11-03T07:30:18.231Z,9.90
2022-11-03T07:30:51.181Z,9.90
2022-11-03T07:31:25.263Z,9.90
2022-11-03T07:32:00.945Z,9.90
2022-11-03T07:32:34.461Z,9.90
2022-11-03T07:33:14.312Z,9.90
2022-11-03T07:33:47.747Z,9.90
2022-11-03T07:34:22.422Z,9.80
2022-11-03T07:35:03.757Z,9.80
2022-11-03T07:36:00.815Z,9.80
2022-11-03T07:36:33.111Z,9.80
2022-11-03T07:37:05.018Z,9.70
2022-11-03T07:37:37.949Z,9.70
2022-11-03T07:38:13.250Z,9.70
2022-11-03T07:38:48.814Z,9.80
2022-11-03T07:39:21.453Z,9.70
2022-11-03T07:39:53.670Z,9.80
2022-11-03T07:40:27.648Z,9.70
2022-11-03T07:41:00.195Z,9.80
2022-11-03T07:41:34.757Z,9.70
2022-11-03T07:42:14.735Z,9.80
2022-11-03T07:42:47.506Z,9.80
2022-11-03T07:43:22.604Z,9.80
2022-11-03T07:43:57.686Z,9.80
2022-11-03T07:44:29.575Z,9.80
2022-11-03T07:45:02.430Z,9.80
2022-11-03T07:45:39.066Z,9.80
2022-11-03T07:46:19.640Z,9.90
2022-11-03T07:46:51.464Z,9.90
2022-11-03T07:47:28.596Z,9.90
2022-11-03T07:48:04.524Z,9.90
2022-11-03T07:48:42.153Z,9.90
2022-11-03T07:49:24.581Z,9.90
2022-11-03T07:49:57.553Z,9.90
2022-11-03T07:50:29.424Z,9.90
2022-11-03T07:51:13.156Z,10.00
2022-11-03T07:51:45.015Z,10.00
2022-11-03T07:52:21.937Z,10.00
2022-11-03T07:52:53.768Z,10.00
2022-11-03T07:53:33.027Z,10.00
2022-11-03T07:54:16.025Z,10.00
2022-11-03T07:54:48.013Z,10.00
2022-11-03T07:55:19.987Z,10.00
2022-11-03T07:55:55.555Z,10.00
2022-11-03T07:56:32.264Z,10.00
2022-11-03T07:57:07.843Z,10.00
2022-11-03T07:57:39.786Z,10.00
2022-11-03T07:58:24.145Z,10.00
2022-11-03T07:59:00.538Z,10.00
2022-11-03T07:59:36.195Z,9.90
2022-11-03T08:00:17.152Z,10.00
2022-11-03T08:00:49.354Z,10.00
2022-11-03T08:01:27.867Z,10.00
2022-11-03T08:02:02.816Z,10.00
2022-11-03T08:02:42.467Z,10.00
2022-11-03T08:03:25.211Z,10.00
2022-11-03T08:04:02.113Z,9.90
2022-11-03T08:04:35.317Z,9.90
2022-11-03T08:05:08.765Z,9.90
2022-11-03T08:05:40.697Z,9.90
2022-11-03T08:06:14.582Z,9.90
2022-11-03T08:06:49.220Z,9.90
2022-11-03T08:07:21.025Z,9.90
2022-11-03T08:07:52.793Z,9.90
2022-11-03T08:08:25.572Z,9.90
2022-11-03T08:08:57.795Z,9.90
2022-11-03T08:09:30.627Z,9.90
2022-11-03T08:10:02.548Z,9.90
2022-11-03T08:10:34.353Z,9.90
2022-11-03T08:11:07.647Z,10.00
2022-11-03T08:11:39.735Z,10.00
2022-11-03T08:12:12.511Z,10.00
2022-11-03T08:12:44.389Z,10.00
2022-11-03T08:13:16.266Z,10.00
2022-11-03T08:13:49.087Z,10.10
2022-11-03T08:14:20.977Z,10.10
2022-11-03T08:14:52.795Z,10.10
2022-11-03T08:15:25.915Z,10.10